メインページ
METAR-TAF:

METAR-TAF

空港 :

マカオ国際空港

マカオ, 中華人民共和国

緯度: 22-10N, 経度: 113-34E, 海抜: 114m

現時点の気象観測

当レポートは27分前の13:00(UTC)に作成
東/北東の風 6kt、北/北東から東/南東の間で変化する
気温 25°C
湿度 94%
気圧 1009 hPa
視程: 9000m
高度300ftの雲はほとんどない
高度2000ftの雲は散在している
高度4000ftの曇り
弱いにわか雨,

METAR: VMMC 241300Z 07006KT 030V110 9000 -SHRA FEW003 SCT020 OVC040 25/24 Q1009 NOSIG

時間: 21:27 (13:27 UTC)

予報

当レポートは2時間27分前の11:00(UTC)に作成
予報は24日の 12時(UTC)から 25日の 18時(UTC)まで有効
の風 8kt
視程: 8000m
高度500ftの雲はほとんどない
高度1500ftの雲は散在している
24日の 12時(UTC)から 24日の 18時(UTC)まで一時的に
東/北東の風 10kt
視程: 2800m
にわか雨
24日の 22時(UTC)から 25日の 02時(UTC)まで一時的に
視程: 4000m
にわか雨,

TAF: VMMC 241100Z 2412/2518 18008KT 8000 FEW005 SCT015 TEMPO 2412/2418 07010KT 2800 SHRA TEMPO 2422/2502 4000 SHRA

4,000以上の空港の気象観測と天気予報(METAR報とTAF報)

利用可能な観測所は地図上に黄色い丸と赤い丸で示す。

丸の上にカーソルを重ねると観測所名を参照できる。

次にクリックすると気象観測と天気予報を参照できる。

マップの切り替え:黒色「×」印の緑ボタンをクリックして拡大、「-」印の緑ボタンをクリックして縮小、緑色の三角印をクリックして隣りの地図に切り替え


METAR-TAF: